Terminal Aerodrome Forecast
Issued by NWS

Home | Current Version | Previous Version | Text Only | Print | Product List | Glossary On
Versions: 1 2 3 4 5 6 7 8 9 10 11 12 13 14 15
000
FTUS43 KMQT 260500
TAFIWD
TAF
KIWD 260521Z 2606/2706 VRB03KT 5SM -SN OVC015
     FM260900 35003KT 2SM -SN OVC008
     FM261400 36003KT 4SM -SN OVC008
      AMD LTD TO CLD VIS AND WIND=

USA.gov is the U.S. government's official web portal to all federal, state and local government web resources and services.